Time;durP1;ratioP1;P1;durP2;ratioP2;P2;SDS_P1;SDS_P2;PMS_P1;PMS_P2;Temp;Humidity;BMP_temperature;BMP_pressure;BME280_temperature;BME280_humidity;BME280_pressure;Samples;Min_cycle;Max_cycle;Signal;HPM_P1;HPM_P2
2022/09/27 00:02:19;;;;;;;52.80;50.30;;;10.50;99.90;;;;;;5093897;28;20186;-84
2022/09/27 00:04:46;;;;;;;38.67;36.50;;;10.50;99.90;;;;;;5098079;28;20193;-85
2022/09/27 00:07:12;;;;;;;45.00;42.60;;;10.50;99.90;;;;;;5096310;28;20188;-85
2022/09/27 00:09:38;;;;;;;38.70;36.60;;;10.50;99.90;;;;;;5069893;28;20559;-84
2022/09/27 00:12:04;;;;;;;35.47;33.67;;;10.50;99.90;;;;;;5056598;28;20177;-84
2022/09/27 00:14:29;;;;;;;26.53;25.20;;;10.40;99.90;;;;;;5056516;28;20269;-84
2022/09/27 00:16:56;;;;;;;26.33;25.00;;;10.40;99.90;;;;;;5057951;28;20218;-85
2022/09/27 00:19:24;;;;;;;27.97;26.70;;;10.30;99.90;;;;;;5075199;28;20208;-84
2022/09/27 00:21:50;;;;;;;24.93;23.77;;;10.40;99.90;;;;;;5079798;28;20562;-84
2022/09/27 00:24:21;;;;;;;21.77;20.70;;;10.40;99.90;;;;;;5078441;28;20173;-84
2022/09/27 00:26:48;;;;;;;21.60;20.57;;;10.40;99.90;;;;;;5086165;28;20224;-84
2022/09/27 00:29:17;;;;;;;22.20;21.17;;;10.40;99.90;;;;;;5081756;28;20658;-84
2022/09/27 00:31:43;;;;;;;11.37;10.77;;;10.40;99.90;;;;;;5091761;28;20212;-85
2022/09/27 00:34:20;;;;;;;30.93;29.33;;;10.40;99.90;;;;;;5076757;28;20186;-83
2022/09/27 00:36:47;;;;;;;31.67;29.93;;;10.40;99.90;;;;;;5075599;28;20773;-84
2022/09/27 00:39:13;;;;;;;28.03;26.43;;;10.30;99.90;;;;;;5075330;28;20182;-83
2022/09/27 00:41:41;;;;;;;13.20;12.60;;;10.40;99.90;;;;;;5075535;28;20268;-83
2022/09/27 00:44:25;;;;;;;10.03;9.63;;;10.30;99.90;;;;;;5076013;28;20180;-84
2022/09/27 00:46:51;;;;;;;9.50;9.10;;;10.30;99.90;;;;;;5076543;28;20205;-84
2022/09/27 00:49:17;;;;;;;14.50;13.77;;;10.30;99.90;;;;;;5074738;28;20237;-85
2022/09/27 00:51:45;;;;;;;13.17;12.57;;;10.30;99.90;;;;;;5074606;28;20609;-83
2022/09/27 00:54:13;;;;;;;14.70;13.90;;;10.40;99.90;;;;;;5075664;28;20205;-82
2022/09/27 00:56:42;;;;;;;11.27;10.77;;;10.30;99.90;;;;;;5073912;28;20205;-82
2022/09/27 00:59:15;;;;;;;7.43;7.03;;;10.30;99.90;;;;;;5062985;28;20186;-83
2022/09/27 01:01:41;;;;;;;11.13;10.63;;;10.30;99.90;;;;;;5059798;28;20182;-84
2022/09/27 01:04:21;;;;;;;16.40;15.53;;;10.30;99.90;;;;;;5062095;28;20183;-83
2022/09/27 01:06:48;;;;;;;22.97;21.87;;;10.30;99.90;;;;;;5055096;28;20703;-83
2022/09/27 01:09:14;;;;;;;34.60;32.80;;;10.30;99.90;;;;;;5054333;28;20178;-83
2022/09/27 01:12:07;;;;;;;21.43;20.40;;;10.30;99.90;;;;;;5053956;28;20206;-83
2022/09/27 01:14:39;;;;;;;25.30;24.20;;;10.30;99.90;;;;;;5043777;28;20654;-83
2022/09/27 01:17:43;;;;;;;27.00;25.60;;;10.30;99.90;;;;;;5053479;28;20241;-84
2022/09/27 01:20:34;;;;;;;28.30;27.03;;;10.20;99.90;;;;;;5073460;28;20650;-84
2022/09/27 01:23:24;;;;;;;21.50;20.47;;;10.30;99.90;;;;;;5074799;28;20177;-83
2022/09/27 01:26:05;;;;;;;22.93;21.83;;;10.20;99.90;;;;;;5053124;28;20222;-83
2022/09/27 01:28:50;;;;;;;27.03;25.80;;;10.30;99.90;;;;;;5052952;28;20194;-83
2022/09/27 01:31:35;;;;;;;24.57;23.13;;;10.20;99.90;;;;;;5053926;28;20182;-83
2022/09/27 01:34:12;;;;;;;25.27;24.13;;;10.30;99.90;;;;;;5052989;28;20174;-84
2022/09/27 01:36:54;;;;;;;28.50;27.03;;;10.30;99.90;;;;;;5053375;28;20277;-85
2022/09/27 01:39:38;;;;;;;28.63;27.27;;;10.30;99.90;;;;;;5053895;28;20281;-84
2022/09/27 01:42:19;;;;;;;28.13;26.83;;;10.30;99.90;;;;;;5052820;28;20178;-84
2022/09/27 01:45:01;;;;;;;30.57;29.17;;;10.40;99.90;;;;;;5054855;28;20178;-83
2022/09/27 01:47:59;;;;;;;26.00;24.77;;;10.30;99.90;;;;;;5054729;28;20208;-84
2022/09/27 01:50:45;;;;;;;24.47;23.40;;;10.30;99.90;;;;;;5071792;28;20236;-85
2022/09/27 01:53:20;;;;;;;23.17;22.13;;;10.30;99.90;;;;;;5079707;28;20181;-84
2022/09/27 01:55:50;;;;;;;9.03;8.67;;;10.30;99.90;;;;;;5077509;28;20263;-84
2022/09/27 01:58:32;;;;;;;14.90;14.23;;;10.30;99.90;;;;;;5071892;28;20190;-87
2022/09/27 02:00:59;;;;;;;7.10;6.80;;;10.30;99.90;;;;;;5080145;28;20190;-87
2022/09/27 02:03:34;;;;;;;15.20;14.40;;;10.40;99.90;;;;;;5069146;28;20188;-86
2022/09/27 02:06:06;;;;;;;25.80;24.57;;;10.40;99.90;;;;;;5055267;28;20739;-86
2022/09/27 02:08:42;;;;;;;6.13;5.80;;;10.50;99.90;;;;;;5055421;28;20210;-85
2022/09/27 02:11:16;;;;;;;7.83;7.53;;;10.50;99.90;;;;;;5058106;28;20188;-85
2022/09/27 02:13:41;;;;;;;14.27;13.67;;;10.50;99.90;;;;;;5055739;28;20685;-84
2022/09/27 02:16:19;;;;;;;11.27;10.80;;;10.50;99.90;;;;;;5052899;28;20218;-84
2022/09/27 02:19:17;;;;;;;27.77;26.53;;;10.50;99.90;;;;;;5056298;28;20197;-84
2022/09/27 02:21:53;;;;;;;29.80;28.43;;;10.60;99.90;;;;;;5060386;28;20250;-85
2022/09/27 02:24:23;;;;;;;40.40;38.40;;;10.60;99.90;;;;;;5059916;28;20185;-85
2022/09/27 02:27:00;;;;;;;40.77;38.87;;;10.70;99.90;;;;;;5072083;28;20222;-88
2022/09/27 02:29:43;;;;;;;74.93;71.23;;;10.60;99.90;;;;;;5081842;28;20297;-88
2022/09/27 02:32:09;;;;;;;62.47;59.43;;;10.60;99.90;;;;;;5076286;28;20182;-84
2022/09/27 02:34:37;;;;;;;105.27;100.13;;;10.60;99.90;;;;;;5058867;28;20182;-85
2022/09/27 02:37:03;;;;;;;65.47;62.33;;;10.50;99.90;;;;;;5058935;28;20581;-83
2022/09/27 02:39:29;;;;;;;28.10;26.80;;;10.50;99.90;;;;;;5059078;28;20218;-84
2022/09/27 02:41:57;;;;;;;61.50;58.37;;;10.40;99.90;;;;;;5059233;28;20186;-83
2022/09/27 02:44:24;;;;;;;79.27;75.17;;;10.40;99.90;;;;;;5057784;28;20177;-83
2022/09/27 02:47:18;;;;;;;88.67;84.17;;;10.40;99.90;;;;;;5056350;28;20225;-83
2022/09/27 02:49:56;;;;;;;60.87;58.00;;;10.40;99.90;;;;;;5065781;28;20206;-83
2022/09/27 02:52:41;;;;;;;51.37;48.87;;;10.30;99.90;;;;;;5076781;28;20205;-83
2022/09/27 02:55:49;;;;;;;36.73;35.03;;;10.30;99.90;;;;;;5076614;28;20178;-83
2022/09/27 02:58:34;;;;;;;27.70;26.33;;;10.30;99.90;;;;;;5071472;28;20186;-83
2022/09/27 03:01:29;;;;;;;9.17;8.83;;;10.30;99.90;;;;;;5057595;28;20182;-84
2022/09/27 03:04:17;;;;;;;10.43;9.93;;;10.30;99.90;;;;;;5057852;28;20232;-84
2022/09/27 03:06:46;;;;;;;11.60;11.00;;;10.30;99.90;;;;;;5056066;28;20213;-81
2022/09/27 03:09:17;;;;;;;10.83;10.33;;;10.30;99.90;;;;;;5061484;28;20174;-84
2022/09/27 03:11:44;;;;;;;8.13;7.77;;;10.30;99.90;;;;;;5067544;28;20182;-81
2022/09/27 03:14:10;;;;;;;12.50;8.63;;;10.20;99.90;;;;;;5056594;28;20581;-82
2022/09/27 03:16:37;;;;;;;6.90;6.67;;;10.20;99.90;;;;;;5057698;28;20214;-83
2022/09/27 03:19:03;;;;;;;7.23;6.93;;;10.20;99.90;;;;;;5055754;28;20536;-83
2022/09/27 03:21:38;;;;;;;7.37;7.07;;;10.20;99.90;;;;;;5055177;28;20535;-83
2022/09/27 03:24:03;;;;;;;10.80;10.33;;;10.20;99.90;;;;;;5070348;28;20174;-85
2022/09/27 03:26:30;;;;;;;19.10;18.27;;;10.20;99.90;;;;;;5074951;28;20202;-85
2022/09/27 03:28:56;;;;;;;13.03;12.37;;;10.10;99.90;;;;;;5062214;28;20231;-86
2022/09/27 03:31:22;;;;;;;12.67;12.13;;;10.10;99.90;;;;;;5083517;28;20174;-84
2022/09/27 03:33:48;;;;;;;13.80;13.23;;;10.10;99.90;;;;;;5086755;28;20672;-85
2022/09/27 03:36:14;;;;;;;34.20;32.57;;;10.00;99.90;;;;;;5090629;28;20272;-85
2022/09/27 03:38:39;;;;;;;23.13;22.07;;;10.00;99.90;;;;;;5080086;28;20182;-85
2022/09/27 03:41:05;;;;;;;10.43;9.83;;;10.00;99.90;;;;;;5062312;28;20558;-86
2022/09/27 03:43:31;;;;;;;21.77;20.53;;;10.00;99.90;;;;;;5058111;28;20178;-85
2022/09/27 03:45:57;;;;;;;18.70;17.70;;;9.90;99.90;;;;;;5060037;28;20777;-86
2022/09/27 03:48:23;;;;;;;26.53;25.30;;;9.90;99.90;;;;;;5061708;28;20327;-87
2022/09/27 03:50:50;;;;;;;25.83;24.57;;;9.90;99.90;;;;;;5057905;28;20190;-87
2022/09/27 03:53:16;;;;;;;22.70;21.57;;;9.90;99.90;;;;;;5058965;28;20179;-86
2022/09/27 03:55:44;;;;;;;18.77;17.83;;;9.80;99.90;;;;;;5057388;28;20613;-86
2022/09/27 03:58:11;;;;;;;12.37;11.67;;;9.80;99.90;;;;;;5058637;28;20614;-85
2022/09/27 04:00:36;;;;;;;5.10;4.80;;;9.80;99.90;;;;;;5056824;28;20174;-85
2022/09/27 04:03:03;;;;;;;13.30;12.57;;;9.80;99.90;;;;;;5056506;28;20179;-86
2022/09/27 04:05:35;;;;;;;44.37;41.97;;;9.80;99.90;;;;;;5056903;28;20196;-85
2022/09/27 04:08:01;;;;;;;53.50;50.47;;;9.80;99.90;;;;;;5062926;28;20264;-86
2022/09/27 04:10:26;;;;;;;17.67;16.83;;;9.80;99.90;;;;;;5061226;28;20179;-86
2022/09/27 04:12:52;;;;;;;10.33;9.73;;;9.80;99.90;;;;;;5058228;28;20202;-86
2022/09/27 04:15:18;;;;;;;29.93;28.47;;;9.80;99.90;;;;;;5057571;28;20181;-86
2022/09/27 04:17:45;;;;;;;43.40;41.20;;;9.80;99.90;;;;;;5097621;23;20233;-78
2022/09/27 04:20:10;;;;;;;49.47;46.93;;;9.80;99.90;;;;;;5098161;28;20184;-82
2022/09/27 04:22:40;;;;;;;72.13;68.40;;;9.80;99.90;;;;;;5077947;28;20555;-82
2022/09/27 04:25:08;;;;;;;57.43;54.50;;;9.80;99.90;;;;;;5096924;28;20177;-79
2022/09/27 04:27:34;;;;;;;44.37;41.97;;;9.80;99.90;;;;;;5077340;28;20208;-81
2022/09/27 04:30:00;;;;;;;20.53;19.53;;;9.80;99.90;;;;;;5098234;28;20173;-78
2022/09/27 04:32:26;;;;;;;23.83;22.57;;;9.80;99.90;;;;;;5097955;28;20188;-78
2022/09/27 04:37:37;;;;;;;23.73;22.17;;;9.90;99.90;;;;;;5094695;28;20198;-82
2022/09/27 04:40:04;;;;;;;28.57;27.10;;;9.90;99.90;;;;;;5076345;28;20236;-81
2022/09/27 04:42:30;;;;;;;34.43;32.37;;;9.90;99.90;;;;;;5076957;28;20177;-82
2022/09/27 04:44:56;;;;;;;38.67;36.63;;;9.90;99.90;;;;;;5077364;28;20188;-80
2022/09/27 04:47:22;;;;;;;14.10;13.23;;;9.90;99.90;;;;;;5077179;28;20255;-80
2022/09/27 04:49:49;;;;;;;9.73;9.23;;;9.90;99.90;;;;;;5094245;28;20169;-80
2022/09/27 04:52:14;;;;;;;8.37;7.93;;;9.90;99.90;;;;;;5094679;28;20702;-78
2022/09/27 04:54:41;;;;;;;8.73;8.13;;;9.90;99.90;;;;;;5076373;28;20188;-78
2022/09/27 04:57:07;;;;;;;10.07;9.57;;;9.90;99.90;;;;;;5076647;28;20205;-78
2022/09/27 04:59:33;;;;;;;10.00;9.17;;;9.90;99.90;;;;;;5082384;28;20179;-80
2022/09/27 05:01:59;;;;;;;19.07;17.80;;;9.90;99.90;;;;;;5081300;28;20181;-80
2022/09/27 05:04:26;;;;;;;24.67;23.27;;;9.90;99.90;;;;;;5077407;28;20184;-80
2022/09/27 05:06:52;;;;;;;10.57;10.07;;;9.90;99.90;;;;;;5076947;28;20216;-80
2022/09/27 05:09:19;;;;;;;9.83;9.27;;;9.90;99.90;;;;;;5075812;28;20177;-80
2022/09/27 05:11:45;;;;;;;11.17;10.57;;;10.00;99.90;;;;;;5094015;28;20224;-79
2022/09/27 05:14:12;;;;;;;13.97;12.97;;;10.00;99.90;;;;;;5076428;28;20189;-81
2022/09/27 05:16:38;;;;;;;17.50;16.57;;;10.00;99.90;;;;;;5076067;28;20213;-77
2022/09/27 05:19:04;;;;;;;21.23;19.90;;;10.00;99.90;;;;;;5075390;28;20170;-80
2022/09/27 05:21:30;;;;;;;51.67;48.90;;;10.00;99.90;;;;;;5055951;28;20177;-81
2022/09/27 05:23:57;;;;;;;38.23;35.50;;;10.00;99.90;;;;;;5055452;28;20176;-80
2022/09/27 05:26:23;;;;;;;52.67;49.87;;;9.90;99.90;;;;;;5055865;28;20201;-81
2022/09/27 05:28:49;;;;;;;34.13;32.23;;;9.90;99.90;;;;;;5055307;28;20212;-80
2022/09/27 05:31:15;;;;;;;19.53;18.13;;;9.80;99.90;;;;;;5090608;28;20188;-80
2022/09/27 05:33:42;;;;;;;15.70;14.67;;;9.80;99.90;;;;;;5083901;28;20197;-79
2022/09/27 05:36:08;;;;;;;14.30;13.20;;;9.80;99.90;;;;;;5080036;28;20217;-78
2022/09/27 05:38:35;;;;;;;24.07;22.87;;;9.80;99.90;;;;;;5062312;28;20176;-78
2022/09/27 05:41:02;;;;;;;41.07;38.57;;;9.80;99.90;;;;;;5093186;28;20838;-78
2022/09/27 05:43:28;;;;;;;66.83;63.17;;;9.70;99.90;;;;;;5078356;28;20192;-78
2022/09/27 05:45:55;;;;;;;44.20;41.60;;;9.80;99.90;;;;;;5079443;28;20177;-76
2022/09/27 05:48:21;;;;;;;63.07;59.60;;;9.70;99.90;;;;;;5082937;28;20270;-76
2022/09/27 05:50:46;;;;;;;97.10;92.23;;;9.70;99.90;;;;;;5102107;28;20183;-79
2022/09/27 05:53:12;;;;;;;189.17;178.43;;;9.70;99.90;;;;;;5079387;28;20192;-78
2022/09/27 05:55:38;;;;;;;80.13;76.13;;;9.60;99.90;;;;;;5078094;28;20206;-78
2022/09/27 05:58:06;;;;;;;63.47;60.10;;;9.60;99.90;;;;;;5077117;28;20197;-78
2022/09/27 06:00:33;;;;;;;39.63;37.03;;;9.60;99.90;;;;;;5079611;28;20195;-78
2022/09/27 06:03:01;;;;;;;29.53;28.07;;;9.60;99.90;;;;;;5096619;28;20181;-80
2022/09/27 06:05:33;;;;;;;13.53;12.43;;;9.60;99.90;;;;;;5093787;28;20177;-78
2022/09/27 06:08:10;;;;;;;10.47;9.47;;;9.60;99.90;;;;;;5073980;28;20274;-77
2022/09/27 06:10:37;;;;;;;21.73;19.83;;;9.60;99.90;;;;;;5078053;28;20180;-79
2022/09/27 06:13:06;;;;;;;23.63;22.30;;;9.70;99.90;;;;;;5082750;28;20212;-79
2022/09/27 06:15:33;;;;;;;25.93;24.37;;;9.70;99.90;;;;;;5069068;28;20264;-80
2022/09/27 06:18:10;;;;;;;26.43;24.80;;;9.70;99.90;;;;;;5066675;28;20205;-80
2022/09/27 06:20:37;;;;;;;31.10;29.23;;;9.70;99.90;;;;;;5078194;28;20248;-80
2022/09/27 06:23:04;;;;;;;23.90;22.57;;;9.60;99.90;;;;;;5059681;28;20181;-80
2022/09/27 06:25:30;;;;;;;28.00;26.23;;;9.60;99.90;;;;;;5079296;28;20716;-83
2022/09/27 06:27:57;;;;;;;30.23;28.57;;;9.70;99.90;;;;;;5096872;28;20425;-80
2022/09/27 06:30:22;;;;;;;20.33;18.97;;;9.70;99.90;;;;;;5077341;28;20185;-84
2022/09/27 06:32:55;;;;;;;19.13;17.47;;;9.70;99.90;;;;;;5076596;28;20169;-79
2022/09/27 06:35:23;;;;;;;18.90;17.63;;;9.70;99.90;;;;;;5080704;28;20672;-80
2022/09/27 06:37:52;;;;;;;41.27;38.47;;;9.80;99.90;;;;;;5076708;28;20207;-80
2022/09/27 06:40:19;;;;;;;21.97;20.77;;;9.70;99.90;;;;;;5094406;28;20192;-81
2022/09/27 06:42:46;;;;;;;36.60;34.70;;;9.70;99.90;;;;;;5073831;28;20181;-73
2022/09/27 06:45:12;;;;;;;36.37;33.70;;;9.60;99.90;;;;;;5088037;28;20208;-78
2022/09/27 06:47:38;;;;;;;29.80;28.13;;;9.60;99.90;;;;;;5070204;28;20598;-73
2022/09/27 06:50:05;;;;;;;20.47;19.13;;;9.70;99.90;;;;;;5088388;28;20181;-73
2022/09/27 06:52:33;;;;;;;20.17;18.93;;;9.60;99.90;;;;;;5070761;28;20177;-72
2022/09/27 06:55:00;;;;;;;16.60;15.67;;;9.70;99.90;;;;;;5091167;28;20184;-84
2022/09/27 07:00:25;;;;;;;12.97;12.13;;;9.80;99.90;;;;;;5097332;28;20192;-78
2022/09/27 07:02:53;;;;;;;11.50;10.50;;;9.90;99.90;;;;;;5086183;28;20188;-78
2022/09/27 07:05:20;;;;;;;22.27;21.07;;;9.90;99.90;;;;;;5105683;28;20230;-79
2022/09/27 07:07:49;;;;;;;98.07;93.33;;;10.10;99.90;;;;;;5081241;28;20223;-84
2022/09/27 07:10:16;;;;;;;88.83;84.17;;;10.30;99.90;;;;;;5080460;28;20177;-85
2022/09/27 07:12:46;;;;;;;31.63;29.87;;;10.50;99.90;;;;;;5081493;28;20203;-86
2022/09/27 07:15:12;;;;;;;25.17;23.80;;;10.80;99.90;;;;;;5081716;28;20599;-83
2022/09/27 07:17:38;;;;;;;19.70;18.67;;;11.10;99.90;;;;;;5087209;28;20251;-82
2022/09/27 07:20:04;;;;;;;45.13;42.83;;;11.20;99.90;;;;;;5084317;28;20177;-81
2022/09/27 07:22:30;;;;;;;32.73;31.10;;;11.00;99.90;;;;;;5078083;28;20189;-81
2022/09/27 07:24:56;;;;;;;19.53;18.53;;;10.80;99.90;;;;;;5080938;28;20183;-80
2022/09/27 07:27:24;;;;;;;8.77;8.37;;;10.60;99.90;;;;;;5104865;28;20300;-81
2022/09/27 07:29:50;;;;;;;8.57;8.17;;;10.40;99.90;;;;;;5098874;28;20220;-81
2022/09/27 07:32:16;;;;;;;26.77;25.57;;;10.20;99.90;;;;;;5091370;28;20665;-83
2022/09/27 07:34:41;;;;;;;38.67;36.77;;;10.20;99.90;;;;;;5104206;28;20176;-83
2022/09/27 07:37:07;;;;;;;30.67;29.23;;;10.20;99.90;;;;;;5085047;28;20204;-83
2022/09/27 07:39:33;;;;;;;27.13;25.87;;;10.20;99.90;;;;;;5083114;28;20590;-83
2022/09/27 07:41:59;;;;;;;14.23;13.53;;;10.20;99.90;;;;;;5085561;28;20238;-82
2022/09/27 07:44:25;;;;;;;10.00;9.40;;;10.20;99.90;;;;;;5082188;28;20215;-82
2022/09/27 07:46:51;;;;;;;8.37;8.00;;;10.00;99.90;;;;;;5085483;28;20209;-82
2022/09/27 07:49:17;;;;;;;10.20;9.80;;;9.90;99.90;;;;;;5094859;28;20184;-82
2022/09/27 07:51:43;;;;;;;8.90;8.50;;;9.80;99.90;;;;;;5082721;28;20242;-83
2022/09/27 07:54:09;;;;;;;20.43;19.43;;;9.80;99.90;;;;;;5081878;28;20177;-83
2022/09/27 07:56:35;;;;;;;31.03;29.47;;;9.90;99.90;;;;;;5081165;28;20265;-82
2022/09/27 07:59:01;;;;;;;110.60;104.90;;;9.90;99.90;;;;;;5080868;28;20222;-81
2022/09/27 08:01:28;;;;;;;79.50;75.47;;;10.00;99.90;;;;;;5083979;28;20597;-82
2022/09/27 08:03:54;;;;;;;69.60;65.90;;;10.00;99.90;;;;;;5085047;28;20272;-81
2022/09/27 08:06:19;;;;;;;49.63;47.13;;;10.00;99.90;;;;;;5083557;28;20209;-81
2022/09/27 08:08:46;;;;;;;54.03;51.47;;;10.00;99.90;;;;;;5089306;28;20215;-81
2022/09/27 08:11:17;;;;;;;31.37;29.83;;;10.00;99.90;;;;;;5093432;28;20177;-82
2022/09/27 08:13:44;;;;;;;26.57;25.37;;;10.00;99.90;;;;;;5109786;28;20655;-82
2022/09/27 08:16:10;;;;;;;24.07;22.97;;;9.90;99.90;;;;;;5083936;28;20704;-84
2022/09/27 08:18:36;;;;;;;19.07;18.07;;;10.00;99.90;;;;;;5084062;28;20246;-82
2022/09/27 08:21:02;;;;;;;33.10;31.50;;;10.10;99.90;;;;;;5083442;28;20184;-82
2022/09/27 08:23:29;;;;;;;15.83;15.03;;;10.20;99.90;;;;;;5082806;28;20671;-83
2022/09/27 08:25:59;;;;;;;37.17;35.43;;;10.40;99.90;;;;;;5083178;28;20235;-83
2022/09/27 08:28:26;;;;;;;49.90;47.47;;;10.80;99.90;;;;;;5081831;28;20577;-81
2022/09/27 08:30:52;;;;;;;17.60;16.63;;;11.10;99.90;;;;;;5083671;28;20180;-83
2022/09/27 08:33:18;;;;;;;21.57;20.60;;;11.40;99.90;;;;;;5097805;28;20181;-82
2022/09/27 08:35:44;;;;;;;9.07;8.67;;;11.90;99.90;;;;;;5102466;28;20187;-83
2022/09/27 08:38:11;;;;;;;17.17;16.33;;;12.40;99.90;;;;;;5081433;28;20189;-83
2022/09/27 08:41:00;;;;;;;53.37;50.77;;;12.80;99.90;;;;;;5082103;28;20227;-83
2022/09/27 08:43:49;;;;;;;17.00;16.00;;;12.60;99.90;;;;;;5081550;28;20238;-84
2022/09/27 08:46:44;;;;;;;9.90;9.43;;;12.20;99.90;;;;;;5081123;28;20208;-83
2022/09/27 08:49:22;;;;;;;16.43;15.63;;;11.80;99.90;;;;;;5081012;28;20219;-83
2022/09/27 08:51:51;;;;;;;22.63;21.63;;;11.40;99.90;;;;;;5082984;28;20554;-83
2022/09/27 08:54:23;;;;;;;23.30;22.20;;;11.40;99.90;;;;;;5098720;28;20605;-82
2022/09/27 08:56:51;;;;;;;23.80;22.57;;;11.50;99.90;;;;;;5099141;28;20759;-82
2022/09/27 08:59:27;;;;;;;14.77;14.07;;;11.70;99.90;;;;;;5102132;28;20177;-82
2022/09/27 09:01:53;;;;;;;17.03;16.13;;;11.90;99.90;;;;;;5089618;28;20195;-82
2022/09/27 09:04:30;;;;;;;16.87;16.13;;;12.20;99.90;;;;;;5094402;28;20181;-83
2022/09/27 09:07:20;;;;;;;107.00;101.90;;;12.10;99.90;;;;;;5079830;28;20200;-82
2022/09/27 09:13:25;;;;;;;15.43;14.63;;;12.20;99.90;;;;;;5096252;28;20184;-82
2022/09/27 09:16:16;;;;;;;8.00;7.60;;;12.10;99.90;;;;;;5058555;28;20180;-83
2022/09/27 09:18:52;;;;;;;7.20;6.90;;;12.10;99.90;;;;;;5060440;28;20213;-83
2022/09/27 09:21:52;;;;;;;8.07;7.77;;;12.10;99.90;;;;;;5060424;28;20238;-83
2022/09/27 09:24:48;;;;;;;7.73;7.23;;;12.10;99.90;;;;;;5087901;28;20188;-83
2022/09/27 09:27:24;;;;;;;4.63;4.40;;;12.30;99.90;;;;;;5096588;28;20205;-83
2022/09/27 09:30:18;;;;;;;7.43;7.13;;;12.60;99.90;;;;;;5077775;28;20683;-81
2022/09/27 09:32:50;;;;;;;10.80;10.37;;;13.10;99.90;;;;;;5096650;28;20192;-83
2022/09/27 09:35:28;;;;;;;12.30;11.80;;;13.60;99.90;;;;;;5096719;28;20188;-83
2022/09/27 09:38:00;;;;;;;9.03;8.50;;;13.50;99.90;;;;;;5077632;28;20216;-83
2022/09/27 09:40:43;;;;;;;4.40;4.10;;;13.30;99.90;;;;;;5078627;28;20555;-83
2022/09/27 09:43:30;;;;;;;8.63;8.23;;;12.80;99.90;;;;;;5080671;28;20187;-83
2022/09/27 09:46:08;;;;;;;16.13;15.37;;;12.50;99.90;;;;;;5068771;28;20189;-84
2022/09/27 09:49:06;;;;;;;15.60;14.87;;;12.30;99.90;;;;;;5060299;28;20266;-84
2022/09/27 09:51:40;;;;;;;15.80;15.00;;;12.30;99.90;;;;;;5060575;28;20590;-83
2022/09/27 09:54:24;;;;;;;11.67;11.17;;;12.40;99.90;;;;;;5079792;28;20184;-83
2022/09/27 09:56:58;;;;;;;9.03;8.73;;;12.60;99.90;;;;;;5097362;28;20260;-83
2022/09/27 09:59:42;;;;;;;7.00;6.60;;;12.90;99.90;;;;;;5074894;28;20767;-81
2022/09/27 10:02:32;;;;;;;3.63;3.53;;;13.50;99.90;;;;;;5075585;28;20181;-82
2022/09/27 10:04:57;;;;;;;3.70;3.50;;;14.10;99.90;;;;;;5111681;27;20169;-82
2022/09/27 10:07:25;;;;;;;4.83;4.63;;;14.10;99.90;;;;;;5082979;28;20220;-83
2022/09/27 10:09:54;;;;;;;4.07;3.87;;;13.70;99.90;;;;;;5084465;28;20787;-84
2022/09/27 10:12:22;;;;;;;4.67;4.50;;;13.50;99.90;;;;;;5082662;28;20286;-83
2022/09/27 10:14:50;;;;;;;13.40;12.77;;;13.80;99.90;;;;;;5081943;28;20204;-83
2022/09/27 10:17:21;;;;;;;7.43;6.87;;;14.60;99.90;;;;;;5086390;23;20239;-75
2022/09/27 10:19:50;;;;;;;5.73;5.50;;;15.50;99.90;;;;;;5070444;28;20178;-75
2022/09/27 10:22:31;;;;;;;8.73;8.33;;;16.30;99.90;;;;;;5052416;28;20603;-75
2022/09/27 10:25:01;;;;;;;14.97;14.30;;;17.00;99.90;;;;;;5070448;28;20185;-75
2022/09/27 10:27:36;;;;;;;18.40;17.40;;;17.30;99.90;;;;;;5070599;28;20224;-77
2022/09/27 10:30:02;;;;;;;16.70;15.70;;;16.50;99.90;;;;;;5055403;28;20208;-78
2022/09/27 10:32:35;;;;;;;23.70;22.57;;;15.50;99.90;;;;;;5062440;28;20205;-79
2022/09/27 10:35:20;;;;;;;39.90;37.90;;;15.40;99.90;;;;;;5057556;28;20189;-78
2022/09/27 10:37:47;;;;;;;36.53;34.83;;;15.70;99.90;;;;;;5057844;28;20221;-79
2022/09/27 10:40:28;;;;;;;40.97;38.87;;;15.70;99.90;;;;;;5075365;28;20214;-79
2022/09/27 10:42:54;;;;;;;44.07;41.97;;;15.70;99.90;;;;;;5056471;28;20727;-68
2022/09/27 10:45:30;;;;;;;36.87;35.00;;;15.40;99.90;;;;;;5073773;28;20182;-68
2022/09/27 10:47:58;;;;;;;47.10;44.90;;;15.20;99.90;;;;;;5073284;28;20216;-68
2022/09/27 10:50:30;;;;;;;24.33;22.97;;;15.10;99.90;;;;;;5073941;28;20174;-68
2022/09/27 10:53:15;;;;;;;25.13;23.93;;;15.00;99.90;;;;;;5073564;28;20184;-69
2022/09/27 10:55:45;;;;;;;8.37;7.87;;;14.70;99.90;;;;;;5074003;28;20197;-68
2022/09/27 10:58:35;;;;;;;21.13;20.07;;;14.60;99.90;;;;;;5073490;28;20206;-69
2022/09/27 11:01:08;;;;;;;24.00;22.77;;;14.30;99.90;;;;;;5073766;28;20672;-68
2022/09/27 11:03:47;;;;;;;6.07;5.67;;;14.10;99.90;;;;;;5055904;28;20793;-69
2022/09/27 11:06:21;;;;;;;4.83;4.63;;;14.00;99.90;;;;;;5073648;28;20216;-69
2022/09/27 11:08:49;;;;;;;4.20;3.90;;;13.90;99.90;;;;;;5073295;28;20247;-70
2022/09/27 11:11:28;;;;;;;4.60;4.33;;;14.10;99.90;;;;;;5056070;28;20174;-75
2022/09/27 11:14:18;;;;;;;4.43;4.23;;;14.50;99.90;;;;;;5073452;28;20649;-75
2022/09/27 11:17:07;;;;;;;4.23;4.03;;;14.60;99.90;;;;;;5074095;28;20225;-75
2022/09/27 11:19:52;;;;;;;13.40;12.43;;;14.80;99.90;;;;;;5074835;28;20259;-78
2022/09/27 11:22:36;;;;;;;34.00;32.20;;;15.20;99.90;;;;;;5056007;28;20180;-76
2022/09/27 11:25:11;;;;;;;31.97;30.43;;;15.70;99.90;;;;;;5055984;28;20711;-77
2022/09/27 11:27:46;;;;;;;24.17;23.03;;;15.90;99.90;;;;;;5074252;28;20629;-76
2022/09/27 11:30:18;;;;;;;25.50;24.20;;;15.50;99.90;;;;;;5073799;28;20591;-77
2022/09/27 11:33:05;;;;;;;32.00;30.50;;;14.90;99.90;;;;;;5073326;28;20789;-75
2022/09/27 11:35:56;;;;;;;55.27;52.13;;;14.60;99.90;;;;;;5073047;28;20182;-77
2022/09/27 11:38:31;;;;;;;52.63;49.83;;;14.40;99.90;;;;;;5055237;28;20213;-77
2022/09/27 11:41:19;;;;;;;64.50;61.43;;;14.50;99.90;;;;;;5073422;28;20561;-75
2022/09/27 11:44:06;;;;;;;35.97;34.10;;;14.80;99.90;;;;;;5054939;28;20658;-75
2022/09/27 11:46:36;;;;;;;50.50;47.87;;;14.60;99.90;;;;;;5073122;28;20192;-75
2022/09/27 11:49:24;;;;;;;40.83;38.80;;;14.70;99.90;;;;;;5072232;28;20213;-75
2022/09/27 11:52:33;;;;;;;44.43;42.07;;;14.70;99.90;;;;;;5054722;28;20174;-73
2022/09/27 11:55:35;;;;;;;50.20;47.60;;;14.60;99.90;;;;;;5073106;28;20196;-74
2022/09/27 11:58:17;;;;;;;54.33;51.70;;;14.80;99.90;;;;;;5003874;28;20208;-75
2022/09/27 12:00:46;;;;;;;58.03;55.07;;;14.90;99.90;;;;;;5054972;28;20548;-74
2022/09/27 12:03:39;;;;;;;51.30;48.70;;;14.90;99.90;;;;;;5054917;28;20617;-73
2022/09/27 12:06:12;;;;;;;47.27;44.97;;;14.80;99.90;;;;;;5054727;28;20658;-74
2022/09/27 12:09:01;;;;;;;25.70;24.50;;;14.80;99.90;;;;;;5072284;28;20221;-74
2022/09/27 12:11:45;;;;;;;53.50;50.70;;;14.40;99.90;;;;;;5068358;28;20174;-74
2022/09/27 12:14:20;;;;;;;67.43;64.10;;;14.20;99.90;;;;;;5071177;28;20209;-77
2022/09/27 12:16:49;;;;;;;57.00;53.90;;;13.90;99.90;;;;;;5071118;28;20266;-77
2022/09/27 12:19:27;;;;;;;9.13;8.57;;;13.60;99.90;;;;;;5072264;28;20170;-75
2022/09/27 12:22:01;;;;;;;6.17;5.70;;;13.30;99.90;;;;;;5054452;28;20337;-75
2022/09/27 12:24:27;;;;;;;4.53;4.23;;;12.40;99.90;;;;;;5054751;28;20695;-74
2022/09/27 12:27:16;;;;;;;23.23;21.83;;;11.30;99.90;;;;;;5072536;28;20697;-74
2022/09/27 12:29:46;;;;;;;20.57;19.67;;;10.50;99.90;;;;;;5038748;28;20239;-75
2022/09/27 12:32:39;;;;;;;21.23;20.33;;;9.90;99.90;;;;;;5054795;28;20620;-74
2022/09/27 12:35:17;;;;;;;11.97;11.47;;;9.50;99.90;;;;;;5071501;28;20181;-75
2022/09/27 12:37:58;;;;;;;59.10;56.33;;;9.40;99.90;;;;;;5053783;28;20197;-75
2022/09/27 12:40:25;;;;;;;18.93;18.03;;;9.30;99.90;;;;;;5054238;28;20264;-73
2022/09/27 12:43:20;;;;;;;42.40;40.40;;;9.20;99.90;;;;;;5072992;28;20205;-75
2022/09/27 12:46:23;;;;;;;13.20;12.33;;;9.20;99.90;;;;;;5057339;28;20178;-74
2022/09/27 12:49:07;;;;;;;14.40;13.77;;;9.20;99.90;;;;;;5047817;28;20236;-78
2022/09/27 12:51:57;;;;;;;15.67;15.00;;;9.40;99.90;;;;;;5052191;28;20265;-73
2022/09/27 12:54:32;;;;;;;56.43;53.57;;;9.50;99.90;;;;;;5065319;28;20189;-75
2022/09/27 12:57:22;;;;;;;37.93;36.13;;;9.60;99.90;;;;;;5071268;28;20219;-73
2022/09/27 13:00:09;;;;;;;24.20;22.97;;;9.80;99.90;;;;;;5053890;28;20173;-73
2022/09/27 13:02:54;;;;;;;7.60;7.20;;;10.00;99.90;;;;;;5071557;28;20618;-75
2022/09/27 13:05:27;;;;;;;10.73;10.10;;;10.30;99.90;;;;;;5071424;28;20212;-74
2022/09/27 13:08:16;;;;;;;11.80;11.30;;;10.40;99.90;;;;;;5070890;28;20678;-74
2022/09/27 13:10:48;;;;;;;24.13;23.03;;;10.60;99.90;;;;;;5013799;28;20627;-75
2022/09/27 13:13:19;;;;;;;22.03;21.00;;;10.80;99.90;;;;;;5034499;28;20179;-74